aviador You're here:

YSNF Decoded Metar

NORFOLK ISLAND in AUSTRALIA
Report Time2017-03-23 04:00:00
UTC Time2017-03-23 04:17:30
Flight Rules vfr VFR
Wind090° at 07 kt
W.Decomp.*RWY 11: 5.7 kt HW 4 kt LCW
RWY 04: 5.7 kt HW 4.0 kt RCW
W.Rank090° ranks 2
Current wind is below 090° avg. (10.4)
Visibility9999 m
Phenomena:N/A
Clouds:Few 034 Hf
Scattered 038 Hf
Broken 300 Hf
Expected CloudBase > 3,600 ft AGL from Temp-Dew spread
Ceiling30,000 ft
Temp22°C (ISA +8)
Dew Point13°C (57% RH)
AAT20.4°C
QNH1018 hPa
Density Alt1,289 ft
Elevation358 ft
Report Wrong Elevation
Raw Report
YSNF 230400Z 09007KT 9999 FEW034 SCT038 BKN300 22/13 Q1018=

Extra information for YSNF:More info

Metar Taf Metar & Taf Last 4 Metars F.Rules Stats Wind Profile Meteogram Temp Stats Airport Information Weather charts Add Link Nearby VenuesMetar ALERT Operation Metar Decoded Social comments